Regionale Übersicht

METAR und TAF

Samstag, 25. Januar 2020 - 18:05 Uhr

Beobachtete horizontale meteorologische Sicht an ausgewählten Flughäfen. Die vollständigen METARs und Flugwettervorhersagen (TAFs) sind verfügbar, wenn Sie auf das entsprechende Symbol mit der ICAO-Flughafenkennung klicken.

  • Luxemburg (ELLX)

    Taf: TAF ELLX 251100Z 2512/2618 13004KT 0300 FG VV002 TEMPO 2512/2616 1500 BR BKN003 PROB40 TEMPO 2600/2608 FZFG BECMG 2616/2618 18006KT 2000 BR BKN003=

    Metar: METAR COR ELLX 251620Z 12003KT 050V140 0150 R24/0250N FG VV000 02/02 Q1020 NOSIG=

  • Spangdahlem (ETAD)

    Taf: TAF AMD ETAD 251315Z 2513/2613 23006KT 0200 FG OVC001 QNH3014INS BECMG 2514/2515 27006KT 0600 FG OVC002 QNH3010INS BECMG 2518/2519 24004KT 0800 FG OVC003 QNH3000INS BECMG 2612/2613 20010G15KT 6000 BR BKN005 OVC008 QNH2994INS TX02/2515Z TN00/2605Z=

    Metar: nil

  • Metz/Nancy (LFJL)

    Taf: TAF AMD LFJL 251257Z 2512/2612 VRB03KT 0500 FG VV/// TEMPO 2512/2519 3000 BR OVC002 PROB40 TEMPO 2513/2518 6000 NSW SCT003 BKN090 TEMPO 2520/2609 0200 FZFG=

    Metar: nil

  • Saarbrücken/Intl (EDDR)

    Taf: TAF AMD EDDR 251225Z 2512/2612 VRB03KT 0200 FG VV001 TEMPO 2512/2518 5000 BR SCT005 TEMPO 2518/2612 FZFG=

    Metar: nil

  • Hahn (EDFH)

    Taf: TAF EDFH 251100Z 2512/2612 23004KT 0100 FG VV000 TEMPO 2512/2520 0800 FG OVC002 PROB30 TEMPO 2512/2518 3000 BCFG SCT005=

    Metar: nil

  • Ramstein (ETAR)

    Taf: TAF AMD ETAR 251340Z 2513/2616 VRB06KT 0800 FG OVC002 QNH3012INS BECMG 2515/2516 VRB06KT 0800 FZFG OVC002 QNH3002INS BECMG 2611/2612 VRB06KT 3200 BR OVC005 QNH3000INS BECMG 2612/2613 VRB06KT 8000 BR OVC007 QNH2998INS TX02/2614Z TNM02/2603Z=

    Metar: nil

  • Nancy/Ochey (LFSO)

    Taf: TAF LFSO 251400Z NIL=

    Metar: nil

  • Liège Bierset (EBLG)

    Taf: TAF EBLG 251119Z 2512/2618 18003KT 3000 BR BKN004 PROB30 TEMPO 2512/2514 0500 FG BKN001 PROB40 TEMPO 2513/2517 6000 NSW NSC BECMG 2522/2524 6000 NSW SCT030=

    Metar: nil

  • Saint-Dizier (LFSI)

    Taf: TAF LFSI 251400Z 2515/2615 VRB02KT 9999 FEW015 PROB40 TEMPO 2523/2606 0500 BCFG=

    Metar: nil

  • Maastricht/Zuid Limburg (EHBK)

    Taf: TAF AMD EHBK 251459Z 2514/2618 19005KT 0400 FG VV000 PROB30 2514/2603 0800 BKN001 PROB40 2603/2608 2000 BR BKN003 BECMG 2608/2611 CAVOK=

    Metar: nil

  • Köln/Köln-Bonn (EDDK)

    Taf: TAF AMD EDDK 251625Z 2516/2618 13005KT 8000 OVC005 BECMG 2516/2519 OVC012 BECMG 2606/2609 14010KT BKN020=

    Metar: METAR EDDK 251650Z 14006KT 9999 OVC004 03/02 Q1021 BECMG BKN006=

  • Charleroi (EBCI)

    Taf: TAF EBCI 251119Z 2512/2618 18003KT 0500 FG BKN001 PROB40 TEMPO 2512/2518 3000 BR BKN004 BECMG 2520/2522 3000 BR BKN004 BECMG 2522/2524 6000 NSW SCT030 PROB40 TEMPO 2612/2618 SCT007 BKN011=

    Metar: nil

  • Wiesbaden (ETOU)

    Taf: TAF ETOU 242000Z 2420/2602 VRB06KT 6000 BR OVC004 620042 QNH3020INS BECMG 2423/2424 VRB06KT 0800 FG BKN005 620052 QNH3020INS BECMG 2510/2511 VRB06KT 8000 BR BKN005 620052 QNH3019INS TX04/2515Z TNM02/2500Z=

    Metar: nil

  • Karlsruhe/Baden-Baden (EDSB)

    Taf: TAF AMD EDSB 251323Z 2513/2612 VRB03KT 4000 BR NSC BECMG 2513/2515 CAVOK BECMG 2518/2520 0200 FZFG=

    Metar: nil

  • Chalons/Vatry (LFOK)

    Taf: TAF AMD LFOK 251257Z 2512/2612 VRB02KT 5000 NSC BECMG 2517/2520 0200 FG VV/// TEMPO 2520/2612 1200 BR=

    Metar: nil

  • Frankfurt/Main (EDDF)

    Taf: TAF EDDF 251100Z 2512/2618 VRB03KT 3000 BR OVC003 TEMPO 2512/2520 6000 OVC006 BECMG 2522/2601 1200 BCFG PROB30 TEMPO 2601/2610 0200 FZFG VV001 BECMG 2610/2613 2000 BR BKN005 BECMG 2613/2616 8000 SCT005 BKN010=

    Metar: METAR EDDF 251650Z VRB02KT 6000 FEW002 OVC004 01/01 Q1022 BECMG 4000 BR=

  • Brüssel (EBBR)

    Taf: TAF EBBR 251119Z 2512/2618 18003KT 2500 BR BKN005 PROB40 TEMPO 2512/2514 0800 FG BKN002 PROB40 TEMPO 2517/2524 0600 FG BKN001 BECMG 2603/2605 6000 NSW SCT040=

    Metar: METAR EBBR 251620Z VRB02KT 0600 R25L/0900N R25R/1900U R01/1700U FG OVC001 03/03 Q1019 NOSIG=

  • Düsseldorf (EDDL)

    Taf: TAF AMD EDDL 251350Z 2513/2618 19006KT 1200 BR OVC003 BECMG 2514/2516 3500 BKN006 BECMG 2516/2519 7000 BECMG 2522/2601 BKN012 BECMG 2606/2609 16011KT BKN020=

    Metar: nil

  • Luxeuil (LFSX)

    Taf: TAF LFSX 251400Z NIL=

    Metar: nil

  • Eindhoven (EHEH)

    Taf: TAF EHEH 251132Z 2512/2618 18004KT 3000 BR BKN004 OVC005 TEMPO 2512/2517 6000 NSW SCT006 BKN009 BECMG 2519/2622 1500 BR BCFG SCT001 BKN002 PROB40 2600/2606 0400 FG OVC001 BECMG 2609/2611 4000 SCT008 BECMG 2614/2616 9999 NSW SCT018=

    Metar: nil

  • Niederrhein (EDLV)

    Taf: TAF COR EDLV 251140Z 2512/2612 20004KT 4000 BR OVC007 BECMG 2517/2520 BKN004 PROB30 TEMPO 2601/2606 0600 FG BKN001 BECMG 2606/2609 15009KT 8000 BKN015=

    Metar: nil

  • Dortmund/Wickede (EDLW)

    Taf: TAF EDLW 251100Z 2512/2612 21005KT 6000 OVC008 TEMPO 2514/2603 BKN012 BECMG 2602/2605 BKN015=

    Metar: nil

  • Stuttgart/Echterdingen (EDDS)

    Taf: TAF EDDS 251100Z 2512/2612 VRB03KT 9000 NSC PROB30 TEMPO 2522/2610 0500 FZFG BKN001=

    Metar: METAR EDDS 251650Z 32004KT CAVOK 03/01 Q1020 NOSIG=

  • Basel-Mühlhausen (LFSB)

    Taf: TAF LFSB 251100Z 2512/2612 16004KT CAVOK BECMG 2516/2518 2000 BR OVC002 TEMPO 2518/2604 0300 FG VV/// BECMG 2604/2607 8000 NSW NSC=

    Metar: METAR LFSB 251630Z 16005KT CAVOK 05/01 Q1020 NOSIG=

  • Lille (LFQQ)

    Taf: TAF AMD LFQQ 251409Z 2514/2618 16007KT 0500 FG VV/// TEMPO 2514/2613 0200=

    Metar: nil

  • Paris/Charles de Gaulle (LFPG)

    Taf: TAF AMD LFPG 251603Z 2516/2618 12005KT 3000 BR NSC TX08/2615Z TN01/2521Z PROB40 TEMPO 2518/2521 0500 BCFG SCT001 BECMG 2520/2522 0400 FG VV/// BECMG 2610/2612 19010KT 3000 BR BKN004 BECMG 2612/2615 9999 NSW BKN010=

    Metar: nil

  • Paderborn/Lippstadt (EDLP)

    Taf: TAF EDLP 251100Z 2512/2612 20004KT 6000 OVC007 BECMG 2515/2518 OVC012 BECMG 2523/2602 BKN015=

    Metar: nil

  • Paris/Le Bourget (LFPB)

    Taf: TAF AMD LFPB 251610Z 2516/2612 12005KT 4000 BR NSC PROB30 TEMPO 2518/2521 0500 BCFG SCT001 BECMG 2520/2522 0500 FG VV/// BECMG 2609/2612 19010KT 4000 BR BKN006=

    Metar: METAR LFPB 251630Z AUTO 06003KT 4500 BR NSC 04/03 Q1018 TEMPO 0500 BCFG=

  • Rotterdam (EHRD)

    Taf: TAF EHRD 251113Z 2512/2618 17008KT 6000 BKN006 PROB30 2512/2515 9000 BKN021 BECMG 2516/2519 2000 BR BKN003 PROB40 2520/2611 0800 FG BKN001 BECMG 2611/2614 5000 BKN006=

    Metar: nil

  • Zürich/Kloten (LSZH)

    Taf: TAF LSZH 251425Z 2515/2621 VRB03KT 0500 PRFG BKN002 TX02/2515Z TNM02/2605Z TX04/2614Z BECMG 2515/2516 1500 BCFG BKN004 PROB40 2516/2519 5000 NSW SCT005 TEMPO 2523/2609 0500 FZFG VV002 BECMG 2611/2614 5000 NSW SCT007 BECMG 2518/2521 4000 BR=

    Metar: METAR LSZH 251650Z VRB01KT 0500 R14/0650D R16/0450N R28/0450U R34/0500D PRFG VV002 M02/M02 Q1021 TEMPO 0300 FZFG=

  • Oostende/Intl (EBOS)

    Taf: TAF EBOS 251119Z 2512/2618 16006KT 1400 BR BKN003 PROB30 TEMPO 2512/2517 4000 BR TEMPO 2517/2602 0500 FG BKN001 BECMG 2609/2611 3000 BR BKN005 BECMG 2611/2613 6000 NSW NSC=

    Metar: nil

  • Paris/Orly (LFPO)

    Taf: TAF LFPO 251100Z 2512/2618 07004KT 3000 BR NSC TEMPO 2513/2517 6000 NSC BECMG 2600/2603 15003KT TEMPO 2518/2609 1500 BR BKN003 PROB30 TEMPO 2518/2606 0400 FG VV/// BECMG 2609/2612 20010KT 8000 BKN006 BECMG 2612/2615 BKN012=

    Metar: nil

  • Beauvais (LFOB)

    Taf: TAF AMD LFOB 251405Z 2514/2612 13006KT 0300 FG VV/// PROB30 TEMPO 2514/2517 2000 BR BKN003 TEMPO 2517/2612 1200 BR=

    Metar: nil

  • Münster/Intl (EDDG)

    Taf: TAF EDDG 251100Z 2512/2612 19004KT 3000 BR OVC007 TEMPO 2512/2517 5000 BKN010 TEMPO 2523/2608 1500 BR OVC002 PROB30 TEMPO 2523/2604 0600 FG BECMG 2609/2612 7000 BKN020=

    Metar: METAR EDDG 251650Z 15004KT 3500 BR OVC004 01/M00 Q1020 BECMG BKN006=

  • Illesheim (ETIK)

    Taf: TAF ETIK 242303Z 2423/2605 VRB06KT 6000 BR SCT010 QNH3014INS TEMPO 2423/2502 4400 BR BECMG 2501/2502 VRB06KT 4800 BR BKN010 620103 QNH3013INS TEMPO 2502/2506 3200 BR BECMG 2509/2510 VRB06KT 9999 NSW OVC010 QNH3012INS BECMG 2514/2515 11009KT 8000 BR BKN009 QNH3011INS TX03/2513Z TNM07/2502Z LAST NO AMDS AFT 2423 NEXT 2623=

    Metar: nil

  • Duebendorf (LSMD)

    Taf: TAF LSMD 251625Z 2517/2623 VRB03KT 0300 FZFG VV001 BECMG 2608/2611 1500 BCFG BKN004 BECMG 2611/2614 6000 SCT007 BECMG 2618/2621 4000 BR=

    Metar: nil

  • Villacoublay (LFPV)

    Taf: TAF LFPV 251400Z 2515/2615 VRB02KT 5000 BR NSC BECMG 2518/2520 19005KT 2000 BR TEMPO 2600/2608 0800 FG BECMG 2611/2613 6000 NSW=

    Metar: nil

  • Payerne (LSMP)

    Taf: TAF LSMP 251625Z 2517/2623 VRB02KT 0500 FG VV002 BECMG 2612/2615 1500 RA BKN030=

    Metar: nil

  • Amsterdam/Schipol (EHAM)

    Taf: TAF EHAM 251106Z 2512/2618 17009KT 6000 BKN006 PROB40 2512/2516 9000 BKN021 BECMG 2518/2521 2000 BR BKN003 PROB40 2522/2611 0800 FG BKN001 BECMG 2611/2614 5000 BKN006=

    Metar: METAR EHAM 251625Z 17008KT 4800 BR BKN007 02/01 Q1019 NOSIG=

  • Emmen (LSME)

    Taf: TAF LSME 251625Z 2517/2623 VRB03KT 0350 FZFG VV001 BECMG 2608/2611 1500 BR BKN004 BECMG 2611/2614 6000 SCT007 BECMG 2618/2621 4000 BR=

    Metar: nil

  • Friedrichshafen (EDNY)

    Taf: TAF AMD EDNY 251354Z 2513/2612 VRB02KT 7000 SCT004 TEMPO 2514/2516 4000 BR BKN005 BECMG 2518/2520 4000 BR BKN004 BECMG 2520/2522 1200 BCFG TEMPO 2522/2609 0600 FZFG VV001 BECMG 2609/2612 4000 BR=

    Metar: nil

  • Alpnach (LSMA)

    Taf: TAF LSMA 251625Z 2517/2623 VRB03KT 0800 PRFG OVC002 BECMG 2517/2520 0300 FZFG VV001 BECMG 2608/2611 1500 BR BKN003 BECMG 2611/2614 6000 SCT006 BECMG 2619/2622 4000 BR=

    Metar: nil

  • Meiringen (LSMM)

    Taf: TAF LSMM 251625Z 2517/2623 VRB02KT 9999 SCT100 PROB40 2520/2610 4000 BR PROB30 2601/2609 1400 BCFG BKN002=

    Metar: nil

  • Nürnberg (EDDN)

    Taf: TAF EDDN 251136Z 2512/2612 VRB03KT 2500 BR SCT001 BKN003 TEMPO 2512/2609 0500 FZFG VV001 BECMG 2610/2612 4500 BR=

    Metar: METAR EDDN 251650Z VRB01KT 0200 R28/0700N FZFG OVC001 M00/M01 Q1021 NOSIG=

  • Rouen (LFOP)

    Taf: TAF AMD LFOP 251256Z 2512/2612 15008KT 0500 FG VV/// PROB40 TEMPO 2512/2519 2000 BR NSC TEMPO 2519/2612 1200 BR=

    Metar: nil

  • Evreux (LFOE)

    Taf: TAF LFOE 241842Z 2418/2515 CNL=

    Metar: nil

  • Erfurt/Bindersleben (EDDE)

    Taf: TAF AMD EDDE 251625Z 2516/2612 28004KT 3000 BR OVC005 TEMPO 2516/2610 0100 FZFG OVC001=

    Metar: nil